sensor_id;sensor_type;location;lat;lon;timestamp;pressure;altitude;pressure_sealevel;temperature;humidity
51239;BME280;38154;47.548;18.828;2023-09-19T00:00:31;98266.22;;;21.73;85.20
51239;BME280;38154;47.548;18.828;2023-09-19T00:02:58;98270.69;;;21.73;85.27
51239;BME280;38154;47.548;18.828;2023-09-19T00:05:28;98270.69;;;21.73;85.37
51239;BME280;38154;47.548;18.828;2023-09-19T00:07:56;98275.22;;;21.71;85.64
51239;BME280;38154;47.548;18.828;2023-09-19T00:10:25;98271.94;;;21.65;86.11
51239;BME280;38154;47.548;18.828;2023-09-19T00:12:53;98270.91;;;21.68;85.99
51239;BME280;38154;47.548;18.828;2023-09-19T00:15:26;98272.03;;;21.64;86.27
51239;BME280;38154;47.548;18.828;2023-09-19T00:17:55;98272.94;;;21.63;86.60
51239;BME280;38154;47.548;18.828;2023-09-19T00:20:21;98264.28;;;21.59;86.89
51239;BME280;38154;47.548;18.828;2023-09-19T00:22:49;98272.47;;;21.55;87.13
51239;BME280;38154;47.548;18.828;2023-09-19T00:25:19;98272.56;;;21.53;87.48
51239;BME280;38154;47.548;18.828;2023-09-19T00:27:46;98267.34;;;21.52;87.90
51239;BME280;38154;47.548;18.828;2023-09-19T00:30:13;98271.78;;;21.51;87.88
51239;BME280;38154;47.548;18.828;2023-09-19T00:32:49;98275.56;;;21.47;88.41
51239;BME280;38154;47.548;18.828;2023-09-19T00:35:20;98278.41;;;21.42;89.05
51239;BME280;38154;47.548;18.828;2023-09-19T00:37:49;98277.56;;;21.42;89.07
51239;BME280;38154;47.548;18.828;2023-09-19T00:40:15;98278.53;;;21.39;89.60
51239;BME280;38154;47.548;18.828;2023-09-19T00:42:41;98272.47;;;21.37;89.66
51239;BME280;38154;47.548;18.828;2023-09-19T00:45:09;98276.19;;;21.33;89.96
51239;BME280;38154;47.548;18.828;2023-09-19T00:47:48;98265.78;;;21.30;90.60
51239;BME280;38154;47.548;18.828;2023-09-19T00:50:19;98265.78;;;21.30;90.60
51239;BME280;38154;47.548;18.828;2023-09-19T00:52:46;98270.34;;;21.26;90.85
51239;BME280;38154;47.548;18.828;2023-09-19T00:55:14;98276.69;;;21.24;91.23
51239;BME280;38154;47.548;18.828;2023-09-19T00:57:41;98270.75;;;21.19;91.86
51239;BME280;38154;47.548;18.828;2023-09-19T01:00:08;98283.12;;;21.18;92.30
51239;BME280;38154;47.548;18.828;2023-09-19T01:02:37;98281.56;;;21.14;92.83
51239;BME280;38154;47.548;18.828;2023-09-19T01:05:04;98272.06;;;21.10;93.00
51239;BME280;38154;47.548;18.828;2023-09-19T01:07:32;98284.78;;;21.03;93.73
51239;BME280;38154;47.548;18.828;2023-09-19T01:10:00;98280.41;;;21.02;93.97
51239;BME280;38154;47.548;18.828;2023-09-19T01:21:46;98265.34;;;21.03;94.72
51239;BME280;38154;47.548;18.828;2023-09-19T01:24:52;98267.12;;;21.02;94.81
51239;BME280;38154;47.548;18.828;2023-09-19T01:29:48;98269.09;;;20.99;95.74
51239;BME280;38154;47.548;18.828;2023-09-19T01:32:19;98260.09;;;21.01;95.79
51239;BME280;38154;47.548;18.828;2023-09-19T01:34:57;98265.66;;;20.97;96.43
51239;BME280;38154;47.548;18.828;2023-09-19T01:37:30;98263.31;;;20.90;96.97
51239;BME280;38154;47.548;18.828;2023-09-19T01:40:00;98258.28;;;20.84;97.79
51239;BME280;38154;47.548;18.828;2023-09-19T01:48:19;98257.81;;;20.76;99.17
51239;BME280;38154;47.548;18.828;2023-09-19T01:51:05;98257.03;;;20.74;99.55
51239;BME280;38154;47.548;18.828;2023-09-19T01:53:49;98251.09;;;20.69;100.00
51239;BME280;38154;47.548;18.828;2023-09-19T01:56:40;98253.97;;;20.64;100.00
51239;BME280;38154;47.548;18.828;2023-09-19T01:59:17;98253.50;;;20.54;100.00
51239;BME280;38154;47.548;18.828;2023-09-19T02:01:47;98250.22;;;20.49;100.00
51239;BME280;38154;47.548;18.828;2023-09-19T02:04:15;98251.31;;;20.45;100.00
51239;BME280;38154;47.548;18.828;2023-09-19T02:06:41;98261.13;;;20.43;100.00
51239;BME280;38154;47.548;18.828;2023-09-19T02:09:07;98259.19;;;20.47;100.00
51239;BME280;38154;47.548;18.828;2023-09-19T02:11:35;98254.87;;;20.44;100.00
51239;BME280;38154;47.548;18.828;2023-09-19T02:14:02;98256.75;;;20.42;100.00
51239;BME280;38154;47.548;18.828;2023-09-19T02:16:30;98257.91;;;20.36;100.00
51239;BME280;38154;47.548;18.828;2023-09-19T02:18:55;98253.44;;;20.37;100.00
51239;BME280;38154;47.548;18.828;2023-09-19T02:21:22;98254.16;;;20.41;100.00
51239;BME280;38154;47.548;18.828;2023-09-19T02:23:48;98248.87;;;20.41;100.00
51239;BME280;38154;47.548;18.828;2023-09-19T02:26:14;98261.97;;;20.44;100.00
51239;BME280;38154;47.548;18.828;2023-09-19T02:28:40;98267.41;;;20.41;100.00
51239;BME280;38154;47.548;18.828;2023-09-19T02:31:06;98263.13;;;20.38;100.00
51239;BME280;38154;47.548;18.828;2023-09-19T02:33:32;98263.25;;;20.35;100.00
51239;BME280;38154;47.548;18.828;2023-09-19T02:35:59;98266.91;;;20.32;100.00
51239;BME280;38154;47.548;18.828;2023-09-19T02:38:25;98259.34;;;20.25;100.00
51239;BME280;38154;47.548;18.828;2023-09-19T02:40:52;98253.16;;;20.24;100.00
51239;BME280;38154;47.548;18.828;2023-09-19T02:43:18;98251.09;;;20.12;100.00
51239;BME280;38154;47.548;18.828;2023-09-19T02:45:48;98249.34;;;19.92;100.00
51239;BME280;38154;47.548;18.828;2023-09-19T02:48:18;98240.47;;;19.72;100.00
51239;BME280;38154;47.548;18.828;2023-09-19T02:50:45;98232.13;;;19.62;100.00
51239;BME280;38154;47.548;18.828;2023-09-19T02:53:11;98244.09;;;19.51;100.00
51239;BME280;38154;47.548;18.828;2023-09-19T02:55:40;98241.19;;;19.36;100.00
51239;BME280;38154;47.548;18.828;2023-09-19T02:58:07;98242.97;;;19.36;100.00
51239;BME280;38154;47.548;18.828;2023-09-19T03:00:40;98243.16;;;19.31;100.00
51239;BME280;38154;47.548;18.828;2023-09-19T03:03:08;98247.19;;;19.19;100.00
51239;BME280;38154;47.548;18.828;2023-09-19T03:05:34;98251.94;;;19.11;100.00
51239;BME280;38154;47.548;18.828;2023-09-19T03:08:01;98246.28;;;18.98;100.00
51239;BME280;38154;47.548;18.828;2023-09-19T03:10:27;98231.63;;;18.91;100.00
51239;BME280;38154;47.548;18.828;2023-09-19T03:12:53;98238.94;;;18.84;100.00
51239;BME280;38154;47.548;18.828;2023-09-19T03:15:20;98245.50;;;18.74;100.00
51239;BME280;38154;47.548;18.828;2023-09-19T03:17:47;98245.50;;;18.74;100.00
51239;BME280;38154;47.548;18.828;2023-09-19T03:20:14;98253.53;;;18.71;100.00
51239;BME280;38154;47.548;18.828;2023-09-19T03:22:45;98262.63;;;18.64;100.00
51239;BME280;38154;47.548;18.828;2023-09-19T03:25:12;98256.47;;;18.63;100.00
51239;BME280;38154;47.548;18.828;2023-09-19T03:27:38;98250.94;;;18.69;100.00
51239;BME280;38154;47.548;18.828;2023-09-19T03:30:05;98252.34;;;18.78;100.00
51239;BME280;38154;47.548;18.828;2023-09-19T03:32:37;98253.66;;;18.90;100.00
51239;BME280;38154;47.548;18.828;2023-09-19T03:35:04;98259.25;;;19.04;100.00
51239;BME280;38154;47.548;18.828;2023-09-19T03:37:31;98266.00;;;19.12;100.00
51239;BME280;38154;47.548;18.828;2023-09-19T03:39:58;98263.16;;;19.16;100.00
51239;BME280;38154;47.548;18.828;2023-09-19T03:42:24;98265.63;;;19.21;100.00
51239;BME280;38154;47.548;18.828;2023-09-19T03:44:52;98265.63;;;19.21;100.00
51239;BME280;38154;47.548;18.828;2023-09-19T03:47:18;98265.94;;;19.34;100.00
51239;BME280;38154;47.548;18.828;2023-09-19T03:49:47;98267.88;;;19.30;100.00
51239;BME280;38154;47.548;18.828;2023-09-19T03:52:13;98269.66;;;19.30;100.00
51239;BME280;38154;47.548;18.828;2023-09-19T03:54:41;98267.88;;;19.30;100.00
51239;BME280;38154;47.548;18.828;2023-09-19T03:57:07;98273.88;;;19.34;100.00
51239;BME280;38154;47.548;18.828;2023-09-19T03:59:33;98266.75;;;19.36;100.00
51239;BME280;38154;47.548;18.828;2023-09-19T04:01:58;98274.03;;;19.51;100.00
51239;BME280;38154;47.548;18.828;2023-09-19T04:04:25;98280.50;;;19.64;100.00
51239;BME280;38154;47.548;18.828;2023-09-19T04:06:51;98286.37;;;19.71;100.00
51239;BME280;38154;47.548;18.828;2023-09-19T04:09:17;98284.38;;;19.78;100.00
51239;BME280;38154;47.548;18.828;2023-09-19T04:11:43;98284.91;;;19.86;100.00
51239;BME280;38154;47.548;18.828;2023-09-19T04:14:08;98282.12;;;19.89;100.00
51239;BME280;38154;47.548;18.828;2023-09-19T04:16:34;98281.22;;;19.89;100.00
51239;BME280;38154;47.548;18.828;2023-09-19T04:19:01;98288.38;;;19.87;100.00
51239;BME280;38154;47.548;18.828;2023-09-19T04:21:27;98287.47;;;19.88;100.00
51239;BME280;38154;47.548;18.828;2023-09-19T04:23:53;98303.19;;;19.91;100.00
51239;BME280;38154;47.548;18.828;2023-09-19T04:26:19;98301.87;;;19.80;100.00
51239;BME280;38154;47.548;18.828;2023-09-19T04:28:45;98305.47;;;19.79;100.00
51239;BME280;38154;47.548;18.828;2023-09-19T04:31:11;98317.47;;;19.66;100.00
51239;BME280;38154;47.548;18.828;2023-09-19T04:33:37;98312.03;;;19.49;100.00
51239;BME280;38154;47.548;18.828;2023-09-19T04:36:04;98308.91;;;19.39;100.00
51239;BME280;38154;47.548;18.828;2023-09-19T04:38:33;98313.88;;;19.26;100.00
51239;BME280;38154;47.548;18.828;2023-09-19T04:40:59;98319.53;;;19.17;100.00
51239;BME280;38154;47.548;18.828;2023-09-19T04:43:25;98327.44;;;19.17;100.00
51239;BME280;38154;47.548;18.828;2023-09-19T04:45:51;98335.19;;;19.21;100.00
51239;BME280;38154;47.548;18.828;2023-09-19T04:48:24;98335.38;;;19.17;100.00
51239;BME280;38154;47.548;18.828;2023-09-19T04:50:50;98341.28;;;19.01;100.00
51239;BME280;38154;47.548;18.828;2023-09-19T04:53:19;98349.38;;;18.97;100.00
51239;BME280;38154;47.548;18.828;2023-09-19T04:55:52;98344.50;;;18.87;100.00
51239;BME280;38154;47.548;18.828;2023-09-19T04:58:22;98342.91;;;18.82;100.00
51239;BME280;38154;47.548;18.828;2023-09-19T05:00:48;98342.16;;;18.78;100.00
51239;BME280;38154;47.548;18.828;2023-09-19T05:03:17;98343.28;;;18.72;100.00
51239;BME280;38154;47.548;18.828;2023-09-19T05:05:42;98344.28;;;18.68;100.00
51239;BME280;38154;47.548;18.828;2023-09-19T05:08:08;98346.31;;;18.62;100.00
51239;BME280;38154;47.548;18.828;2023-09-19T05:10:35;98353.13;;;18.45;100.00
51239;BME280;38154;47.548;18.828;2023-09-19T05:13:04;98356.94;;;18.36;100.00
51239;BME280;38154;47.548;18.828;2023-09-19T05:15:30;98358.78;;;18.34;100.00
51239;BME280;38154;47.548;18.828;2023-09-19T05:17:56;98356.75;;;18.17;100.00
51239;BME280;38154;47.548;18.828;2023-09-19T05:20:23;98363.41;;;18.28;100.00
51239;BME280;38154;47.548;18.828;2023-09-19T05:23:05;98372.47;;;18.21;100.00
51239;BME280;38154;47.548;18.828;2023-09-19T05:25:34;98375.59;;;18.32;100.00
51239;BME280;38154;47.548;18.828;2023-09-19T05:28:03;98380.34;;;18.22;100.00
51239;BME280;38154;47.548;18.828;2023-09-19T05:30:29;98371.75;;;18.17;100.00
51239;BME280;38154;47.548;18.828;2023-09-19T05:32:55;98378.78;;;18.16;100.00
51239;BME280;38154;47.548;18.828;2023-09-19T05:35:22;98376.31;;;18.12;100.00
51239;BME280;38154;47.548;18.828;2023-09-19T05:37:50;98376.53;;;18.06;100.00
51239;BME280;38154;47.548;18.828;2023-09-19T05:40:17;98375.84;;;18.01;100.00
51239;BME280;38154;47.548;18.828;2023-09-19T05:42:44;98374.22;;;17.96;100.00
51239;BME280;38154;47.548;18.828;2023-09-19T05:45:10;98383.66;;;18.04;100.00
51239;BME280;38154;47.548;18.828;2023-09-19T05:47:39;98388.38;;;17.94;100.00
51239;BME280;38154;47.548;18.828;2023-09-19T05:50:12;98386.13;;;17.82;100.00
51239;BME280;38154;47.548;18.828;2023-09-19T05:52:38;98387.63;;;17.90;100.00
51239;BME280;38154;47.548;18.828;2023-09-19T05:55:05;98385.09;;;17.87;100.00
51239;BME280;38154;47.548;18.828;2023-09-19T05:57:33;98386.78;;;17.90;100.00
51239;BME280;38154;47.548;18.828;2023-09-19T05:59:59;98386.91;;;17.85;100.00
51239;BME280;38154;47.548;18.828;2023-09-19T06:02:25;98386.00;;;17.85;100.00
51239;BME280;38154;47.548;18.828;2023-09-19T06:04:54;98388.78;;;17.82;100.00
51239;BME280;38154;47.548;18.828;2023-09-19T06:07:22;98397.19;;;17.93;100.00
51239;BME280;38154;47.548;18.828;2023-09-19T06:09:52;98395.66;;;17.86;100.00
51239;BME280;38154;47.548;18.828;2023-09-19T06:12:19;98398.22;;;17.89;100.00
51239;BME280;38154;47.548;18.828;2023-09-19T06:14:45;98398.88;;;17.95;100.00
51239;BME280;38154;47.548;18.828;2023-09-19T06:17:11;98398.94;;;17.94;100.00
51239;BME280;38154;47.548;18.828;2023-09-19T06:19:37;98406.53;;;17.76;100.00
51239;BME280;38154;47.548;18.828;2023-09-19T06:22:03;98413.09;;;17.65;100.00
51239;BME280;38154;47.548;18.828;2023-09-19T06:24:29;98426.16;;;17.68;100.00
51239;BME280;38154;47.548;18.828;2023-09-19T06:26:56;98416.72;;;17.60;100.00
51239;BME280;38154;47.548;18.828;2023-09-19T06:29:22;98419.25;;;17.64;100.00
51239;BME280;38154;47.548;18.828;2023-09-19T06:31:50;98426.59;;;17.54;100.00
51239;BME280;38154;47.548;18.828;2023-09-19T06:34:16;98426.66;;;17.52;100.00
51239;BME280;38154;47.548;18.828;2023-09-19T06:36:44;98430.63;;;17.37;100.00
51239;BME280;38154;47.548;18.828;2023-09-19T06:39:11;98430.28;;;17.50;100.00
51239;BME280;38154;47.548;18.828;2023-09-19T06:41:37;98436.25;;;17.55;100.00
51239;BME280;38154;47.548;18.828;2023-09-19T06:44:05;98429.34;;;17.51;100.00
51239;BME280;38154;47.548;18.828;2023-09-19T06:46:31;98436.03;;;17.61;100.00
51239;BME280;38154;47.548;18.828;2023-09-19T06:49:03;98434.47;;;17.55;100.00
51239;BME280;38154;47.548;18.828;2023-09-19T06:51:32;98438.56;;;17.64;100.00
51239;BME280;38154;47.548;18.828;2023-09-19T06:54:01;98444.97;;;17.57;100.00
51239;BME280;38154;47.548;18.828;2023-09-19T06:56:27;98441.47;;;17.56;100.00
51239;BME280;38154;47.548;18.828;2023-09-19T06:58:53;98441.44;;;17.58;100.00
51239;BME280;38154;47.548;18.828;2023-09-19T07:01:19;98449.34;;;17.58;100.00
51239;BME280;38154;47.548;18.828;2023-09-19T07:03:45;98447.69;;;17.54;100.00
51239;BME280;38154;47.548;18.828;2023-09-19T07:06:11;98459.22;;;17.51;100.00
51239;BME280;38154;47.548;18.828;2023-09-19T07:08:37;98456.50;;;17.53;100.00
51239;BME280;38154;47.548;18.828;2023-09-19T07:11:04;98465.03;;;17.61;100.00
51239;BME280;38154;47.548;18.828;2023-09-19T07:13:31;98473.12;;;17.56;100.00
51239;BME280;38154;47.548;18.828;2023-09-19T07:15:58;98473.19;;;17.53;100.00
51239;BME280;38154;47.548;18.828;2023-09-19T07:18:25;98470.72;;;17.49;100.00
51239;BME280;38154;47.548;18.828;2023-09-19T07:20:51;98473.62;;;17.39;100.00
51239;BME280;38154;47.548;18.828;2023-09-19T07:23:26;98475.44;;;17.37;100.00
51239;BME280;38154;47.548;18.828;2023-09-19T07:25:57;98468.50;;;17.63;100.00
51239;BME280;38154;47.548;18.828;2023-09-19T07:42:01;98477.37;;;18.89;100.00
51239;BME280;38154;47.548;18.828;2023-09-19T07:44:27;98477.37;;;18.89;100.00
51239;BME280;38154;47.548;18.828;2023-09-19T07:46:53;98492.37;;;18.39;100.00
51239;BME280;38154;47.548;18.828;2023-09-19T07:49:20;98500.41;;;18.35;100.00
51239;BME280;38154;47.548;18.828;2023-09-19T07:51:46;98493.72;;;18.25;100.00
51239;BME280;38154;47.548;18.828;2023-09-19T07:54:12;98507.34;;;18.38;100.00
51239;BME280;38154;47.548;18.828;2023-09-19T07:56:38;98505.41;;;18.43;100.00
51239;BME280;38154;47.548;18.828;2023-09-19T07:59:04;98517.69;;;18.44;100.00
51239;BME280;38154;47.548;18.828;2023-09-19T08:01:30;98517.97;;;18.36;100.00
51239;BME280;38154;47.548;18.828;2023-09-19T08:03:56;98521.09;;;18.48;100.00
51239;BME280;38154;47.548;18.828;2023-09-19T08:06:22;98519.53;;;18.67;100.00
51239;BME280;38154;47.548;18.828;2023-09-19T08:08:51;98529.81;;;18.75;100.00
51239;BME280;38154;47.548;18.828;2023-09-19T08:11:19;98527.41;;;18.94;100.00
51239;BME280;38154;47.548;18.828;2023-09-19T08:13:47;98526.00;;;19.09;100.00
51239;BME280;38154;47.548;18.828;2023-09-19T08:16:17;98528.72;;;19.30;100.00
51239;BME280;38154;47.548;18.828;2023-09-19T08:18:48;98521.75;;;19.27;100.00
51239;BME280;38154;47.548;18.828;2023-09-19T08:21:14;98525.59;;;19.42;100.00
51239;BME280;38154;47.548;18.828;2023-09-19T08:23:41;98530.03;;;19.41;100.00
51239;BME280;38154;47.548;18.828;2023-09-19T08:26:07;98536.44;;;19.36;100.00
51239;BME280;38154;47.548;18.828;2023-09-19T08:28:34;98536.19;;;19.18;100.00
51239;BME280;38154;47.548;18.828;2023-09-19T08:31:04;98542.97;;;19.02;100.00
51239;BME280;38154;47.548;18.828;2023-09-19T08:33:33;98542.28;;;18.97;100.00
51239;BME280;38154;47.548;18.828;2023-09-19T08:36:00;98543.78;;;19.04;100.00
51239;BME280;38154;47.548;18.828;2023-09-19T08:38:26;98553.06;;;19.16;100.00
51239;BME280;38154;47.548;18.828;2023-09-19T08:40:59;98546.53;;;19.01;100.00
51239;BME280;38154;47.548;18.828;2023-09-19T08:43:26;98556.53;;;18.93;100.00
51239;BME280;38154;47.548;18.828;2023-09-19T08:45:58;98572.28;;;18.96;100.00
51239;BME280;38154;47.548;18.828;2023-09-19T08:48:29;98575.50;;;18.79;100.00
51239;BME280;38154;47.548;18.828;2023-09-19T08:51:13;98581.50;;;18.84;100.00
51239;BME280;38154;47.548;18.828;2023-09-19T08:53:54;98583.41;;;18.79;100.00
51239;BME280;38154;47.548;18.828;2023-09-19T08:56:26;98574.19;;;18.65;100.00
51239;BME280;38154;47.548;18.828;2023-09-19T08:59:03;98580.47;;;18.88;100.00
51239;BME280;38154;47.548;18.828;2023-09-19T09:01:29;98567.41;;;18.83;100.00
51239;BME280;38154;47.548;18.828;2023-09-19T09:03:58;98566.56;;;18.83;100.00
51239;BME280;38154;47.548;18.828;2023-09-19T09:06:25;98570.25;;;18.77;100.00
51239;BME280;38154;47.548;18.828;2023-09-19T09:08:51;98562.28;;;18.79;100.00
51239;BME280;38154;47.548;18.828;2023-09-19T09:11:18;98562.78;;;18.90;100.00
51239;BME280;38154;47.548;18.828;2023-09-19T09:13:44;98559.22;;;18.91;100.00
51239;BME280;38154;47.548;18.828;2023-09-19T09:16:12;98558.47;;;18.87;100.00
51239;BME280;38154;47.548;18.828;2023-09-19T09:18:39;98568.09;;;18.88;100.00
51239;BME280;38154;47.548;18.828;2023-09-19T09:21:06;98557.06;;;19.02;100.00
51239;BME280;38154;47.548;18.828;2023-09-19T09:23:32;98559.13;;;18.94;100.00
51239;BME280;38154;47.548;18.828;2023-09-19T09:25:58;98555.78;;;18.89;100.00
51239;BME280;38154;47.548;18.828;2023-09-19T09:28:30;98550.31;;;18.94;100.00
51239;BME280;38154;47.548;18.828;2023-09-19T09:30:57;98559.28;;;18.89;100.00
51239;BME280;38154;47.548;18.828;2023-09-19T09:33:52;98561.81;;;18.93;100.00
51239;BME280;38154;47.548;18.828;2023-09-19T09:36:33;98570.31;;;18.76;100.00
51239;BME280;38154;47.548;18.828;2023-09-19T09:38:59;98567.97;;;18.66;100.00
51239;BME280;38154;47.548;18.828;2023-09-19T09:41:41;98568.50;;;18.51;100.00
51239;BME280;38154;47.548;18.828;2023-09-19T09:44:17;98557.16;;;18.49;100.00
51239;BME280;38154;47.548;18.828;2023-09-19T09:46:44;98553.78;;;18.70;100.00
51239;BME280;38154;47.548;18.828;2023-09-19T09:49:23;98563.19;;;19.03;100.00
51239;BME280;38154;47.548;18.828;2023-09-19T09:52:02;98555.06;;;19.33;100.00
51239;BME280;38154;47.548;18.828;2023-09-19T09:54:34;98559.25;;;19.60;100.00
51239;BME280;38154;47.548;18.828;2023-09-19T09:57:06;98569.38;;;19.73;100.00
51239;BME280;38154;47.548;18.828;2023-09-19T10:00:12;98558.97;;;19.92;100.00
51239;BME280;38154;47.548;18.828;2023-09-19T10:02:37;98569.28;;;20.20;100.00
51239;BME280;38154;47.548;18.828;2023-09-19T10:05:19;98561.94;;;20.69;100.00
51239;BME280;38154;47.548;18.828;2023-09-19T10:08:12;98565.31;;;20.73;100.00
51239;BME280;38154;47.548;18.828;2023-09-19T10:10:40;98560.69;;;20.78;100.00
51239;BME280;38154;47.548;18.828;2023-09-19T10:13:11;98561.97;;;21.28;100.00
51239;BME280;38154;47.548;18.828;2023-09-19T10:15:48;98562.91;;;21.47;100.00
51239;BME280;38154;47.548;18.828;2023-09-19T10:18:20;98571.53;;;21.32;100.00
51239;BME280;38154;47.548;18.828;2023-09-19T10:20:47;98574.13;;;21.72;100.00
51239;BME280;38154;47.548;18.828;2023-09-19T10:23:18;98579.09;;;21.60;100.00
51239;BME280;38154;47.548;18.828;2023-09-19T10:25:52;98581.81;;;21.78;100.00
51239;BME280;38154;47.548;18.828;2023-09-19T10:28:19;98598.81;;;21.55;100.00
51239;BME280;38154;47.548;18.828;2023-09-19T10:30:50;98604.41;;;21.48;100.00
51239;BME280;38154;47.548;18.828;2023-09-19T10:33:17;98599.53;;;21.19;100.00
51239;BME280;38154;47.548;18.828;2023-09-19T10:35:48;98595.97;;;20.99;100.00
51239;BME280;38154;47.548;18.828;2023-09-19T10:38:23;98597.09;;;20.73;100.00
51239;BME280;38154;47.548;18.828;2023-09-19T10:40:53;98598.22;;;20.88;100.00
51239;BME280;38154;47.548;18.828;2023-09-19T10:43:21;98597.84;;;20.77;100.00
51239;BME280;38154;47.548;18.828;2023-09-19T10:45:50;98589.69;;;20.81;100.00
51239;BME280;38154;47.548;18.828;2023-09-19T10:48:19;98599.25;;;20.85;100.00
51239;BME280;38154;47.548;18.828;2023-09-19T10:50:49;98593.28;;;20.80;100.00
51239;BME280;38154;47.548;18.828;2023-09-19T10:53:17;98599.91;;;20.48;100.00
51239;BME280;38154;47.548;18.828;2023-09-19T10:55:53;98604.97;;;20.32;100.00
51239;BME280;38154;47.548;18.828;2023-09-19T10:58:27;98616.22;;;20.59;100.00
51239;BME280;38154;47.548;18.828;2023-09-19T11:00:56;98622.22;;;20.42;100.00
51239;BME280;38154;47.548;18.828;2023-09-19T11:03:23;98625.69;;;20.66;100.00
51239;BME280;38154;47.548;18.828;2023-09-19T11:06:05;98621.75;;;21.16;100.00
51239;BME280;38154;47.548;18.828;2023-09-19T11:09:03;98632.38;;;21.56;100.00
51239;BME280;38154;47.548;18.828;2023-09-19T11:14:40;98632.81;;;23.94;99.77
51239;BME280;38154;47.548;18.828;2023-09-19T11:30:35;98629.53;;;27.84;70.27
51239;BME280;38154;47.548;18.828;2023-09-19T11:33:21;98630.75;;;27.67;70.78
51239;BME280;38154;47.548;18.828;2023-09-19T11:43:49;98627.63;;;26.29;76.96
51239;BME280;38154;47.548;18.828;2023-09-19T11:46:17;98619.38;;;26.87;74.32
51239;BME280;38154;47.548;18.828;2023-09-19T11:48:51;98612.44;;;27.48;68.66
51239;BME280;38154;47.548;18.828;2023-09-19T11:51:24;98626.94;;;26.40;71.72
51239;BME280;38154;47.548;18.828;2023-09-19T11:53:57;98630.69;;;26.77;71.92
51239;BME280;38154;47.548;18.828;2023-09-19T11:56:26;98631.81;;;27.65;68.56
51239;BME280;38154;47.548;18.828;2023-09-19T11:58:57;98628.84;;;27.44;67.95
51239;BME280;38154;47.548;18.828;2023-09-19T12:01:30;98621.81;;;26.90;67.63
51239;BME280;38154;47.548;18.828;2023-09-19T12:03:59;98624.03;;;26.70;69.79
51239;BME280;38154;47.548;18.828;2023-09-19T12:06:26;98622.94;;;25.77;73.51
51239;BME280;38154;47.548;18.828;2023-09-19T12:09:01;98628.56;;;25.14;76.03
51239;BME280;38154;47.548;18.828;2023-09-19T12:11:42;98624.25;;;24.67;81.30
51239;BME280;38154;47.548;18.828;2023-09-19T12:14:21;98620.34;;;24.26;81.28
51239;BME280;38154;47.548;18.828;2023-09-19T12:16:54;98619.19;;;24.62;80.85
51239;BME280;38154;47.548;18.828;2023-09-19T12:19:22;98616.94;;;25.15;79.76
51239;BME280;38154;47.548;18.828;2023-09-19T12:22:02;98623.13;;;25.16;77.29
51239;BME280;38154;47.548;18.828;2023-09-19T12:24:32;98620.63;;;24.68;79.15
51239;BME280;38154;47.548;18.828;2023-09-19T12:27:03;98615.25;;;24.38;78.13
51239;BME280;38154;47.548;18.828;2023-09-19T12:29:32;98626.91;;;24.05;83.89
51239;BME280;38154;47.548;18.828;2023-09-19T12:31:59;98622.34;;;23.91;84.61
51239;BME280;38154;47.548;18.828;2023-09-19T12:34:31;98614.34;;;24.53;82.24
51239;BME280;38154;47.548;18.828;2023-09-19T12:37:11;98626.59;;;25.47;75.67
51239;BME280;38154;47.548;18.828;2023-09-19T12:39:44;98622.56;;;25.83;74.47
51239;BME280;38154;47.548;18.828;2023-09-19T12:42:19;98633.50;;;26.07;69.47
51239;BME280;38154;47.548;18.828;2023-09-19T12:44:50;98625.66;;;25.48;72.72
51239;BME280;38154;47.548;18.828;2023-09-19T12:47:24;98629.63;;;25.26;72.70
51239;BME280;38154;47.548;18.828;2023-09-19T12:52:38;98627.09;;;24.48;76.93
51239;BME280;38154;47.548;18.828;2023-09-19T12:55:05;98629.47;;;24.22;79.89
51239;BME280;38154;47.548;18.828;2023-09-19T12:57:36;98635.38;;;23.80;79.71
51239;BME280;38154;47.548;18.828;2023-09-19T13:00:03;98624.62;;;23.32;84.61
51239;BME280;38154;47.548;18.828;2023-09-19T13:02:31;98630.19;;;22.92;85.12
51239;BME280;38154;47.548;18.828;2023-09-19T13:04:58;98629.09;;;22.79;86.55
51239;BME280;38154;47.548;18.828;2023-09-19T13:07:44;98629.19;;;22.60;88.13
51239;BME280;38154;47.548;18.828;2023-09-19T13:10:15;98626.53;;;22.42;88.57
51239;BME280;38154;47.548;18.828;2023-09-19T13:12:43;98628.78;;;22.50;89.19
51239;BME280;38154;47.548;18.828;2023-09-19T13:15:14;98636.78;;;23.03;84.99
51239;BME280;38154;47.548;18.828;2023-09-19T13:17:47;98628.56;;;23.25;83.23
51239;BME280;38154;47.548;18.828;2023-09-19T13:20:27;98625.62;;;23.47;82.88
51239;BME280;38154;47.548;18.828;2023-09-19T13:22:54;98628.84;;;23.36;83.86
51239;BME280;38154;47.548;18.828;2023-09-19T13:25:26;98629.19;;;23.12;84.72
51239;BME280;38154;47.548;18.828;2023-09-19T13:27:58;98630.47;;;22.88;85.09
51239;BME280;38154;47.548;18.828;2023-09-19T13:30:26;98633.19;;;22.86;85.68
51239;BME280;38154;47.548;18.828;2023-09-19T13:33:05;98635.22;;;22.98;85.52
51239;BME280;38154;47.548;18.828;2023-09-19T13:35:35;98631.25;;;23.07;87.39
51239;BME280;38154;47.548;18.828;2023-09-19T13:38:04;98632.59;;;23.16;84.51
51239;BME280;38154;47.548;18.828;2023-09-19T13:40:30;98630.81;;;22.97;82.97
51239;BME280;38154;47.548;18.828;2023-09-19T13:43:01;98632.62;;;22.97;85.88
51239;BME280;38154;47.548;18.828;2023-09-19T13:45:26;98639.75;;;22.96;85.96
51239;BME280;38154;47.548;18.828;2023-09-19T13:47:56;98646.06;;;22.94;86.58
51239;BME280;38154;47.548;18.828;2023-09-19T13:50:24;98647.72;;;22.96;83.78
51239;BME280;38154;47.548;18.828;2023-09-19T13:52:51;98646.72;;;23.17;84.49